sensor_id;sensor_type;location;lat;lon;timestamp;pressure;altitude;pressure_sealevel;temperature;humidity
32642;BME280;19323;56.072;9.698;2023-01-19T00:02:13;98699.97;;;23.90;44.66
32642;BME280;19323;56.072;9.698;2023-01-19T00:04:38;98697.28;;;23.90;44.57
32642;BME280;19323;56.072;9.698;2023-01-19T00:07:04;98691.31;;;23.88;44.45
32642;BME280;19323;56.072;9.698;2023-01-19T00:09:31;98696.28;;;23.91;44.47
32642;BME280;19323;56.072;9.698;2023-01-19T00:11:58;98697.72;;;23.93;44.36
32642;BME280;19323;56.072;9.698;2023-01-19T00:14:23;98693.78;;;23.89;44.30
32642;BME280;19323;56.072;9.698;2023-01-19T00:16:48;98689.28;;;23.90;44.43
32642;BME280;19323;56.072;9.698;2023-01-19T00:19:13;98684.78;;;23.90;44.24
32642;BME280;19323;56.072;9.698;2023-01-19T00:21:39;98686.22;;;23.93;44.69
32642;BME280;19323;56.072;9.698;2023-01-19T00:24:04;98679.19;;;23.92;44.30
32642;BME280;19323;56.072;9.698;2023-01-19T00:26:29;98680.69;;;23.94;44.31
32642;BME280;19323;56.072;9.698;2023-01-19T00:28:55;98682.31;;;23.95;44.25
32642;BME280;19323;56.072;9.698;2023-01-19T00:31:20;98686.84;;;23.95;44.30
32642;BME280;19323;56.072;9.698;2023-01-19T00:33:45;98680.06;;;23.92;44.12
32642;BME280;19323;56.072;9.698;2023-01-19T00:36:13;98682.50;;;23.94;44.18
32642;BME280;19323;56.072;9.698;2023-01-19T00:38:38;98688.72;;;23.94;44.12
32642;BME280;19323;56.072;9.698;2023-01-19T00:41:03;98679.44;;;23.90;44.24
32642;BME280;19323;56.072;9.698;2023-01-19T00:43:29;98686.03;;;23.94;44.10
32642;BME280;19323;56.072;9.698;2023-01-19T00:45:54;98680.44;;;23.89;44.07
32642;BME280;19323;56.072;9.698;2023-01-19T00:48:19;98679.19;;;23.92;44.16
32642;BME280;19323;56.072;9.698;2023-01-19T00:50:44;98677.56;;;23.91;43.84
32642;BME280;19323;56.072;9.698;2023-01-19T00:53:11;98675.72;;;23.91;44.16
32642;BME280;19323;56.072;9.698;2023-01-19T00:55:36;98677.38;;;23.92;44.10
32642;BME280;19323;56.072;9.698;2023-01-19T00:58:02;98673.03;;;23.91;43.99
32642;BME280;19323;56.072;9.698;2023-01-19T01:00:27;98683.97;;;23.96;44.03
32642;BME280;19323;56.072;9.698;2023-01-19T01:02:52;98674.09;;;23.97;43.95
32642;BME280;19323;56.072;9.698;2023-01-19T01:05:18;98675.34;;;23.94;43.92
32642;BME280;19323;56.072;9.698;2023-01-19T01:07:44;98682.94;;;23.97;44.03
32642;BME280;19323;56.072;9.698;2023-01-19T01:10:22;98673.72;;;24.06;43.78
32642;BME280;19323;56.072;9.698;2023-01-19T01:12:48;98678.41;;;23.98;43.79
32642;BME280;19323;56.072;9.698;2023-01-19T01:15:14;98673.88;;;23.98;43.89
32642;BME280;19323;56.072;9.698;2023-01-19T01:17:40;98672.25;;;23.97;44.01
32642;BME280;19323;56.072;9.698;2023-01-19T01:20:16;98674.97;;;24.04;43.65
32642;BME280;19323;56.072;9.698;2023-01-19T01:22:43;98665.66;;;23.93;43.86
32642;BME280;19323;56.072;9.698;2023-01-19T01:25:17;98661.13;;;23.94;43.77
32642;BME280;19323;56.072;9.698;2023-01-19T01:27:42;98654.53;;;23.96;43.90
32642;BME280;19323;56.072;9.698;2023-01-19T01:30:11;98661.41;;;24.05;43.70
32642;BME280;19323;56.072;9.698;2023-01-19T01:32:38;98666.50;;;24.00;43.73
32642;BME280;19323;56.072;9.698;2023-01-19T01:35:03;98674.53;;;24.00;43.72
32642;BME280;19323;56.072;9.698;2023-01-19T01:37:29;98669.34;;;23.92;43.73
32642;BME280;19323;56.072;9.698;2023-01-19T01:39:54;98668.53;;;23.98;43.63
32642;BME280;19323;56.072;9.698;2023-01-19T01:42:25;98678.06;;;24.08;43.58
32642;BME280;19323;56.072;9.698;2023-01-19T01:44:55;98683.41;;;24.08;43.37
32642;BME280;19323;56.072;9.698;2023-01-19T01:47:38;98674.16;;;24.10;43.41
32642;BME280;19323;56.072;9.698;2023-01-19T01:52:37;98665.91;;;24.05;43.51
32642;BME280;19323;56.072;9.698;2023-01-19T01:55:05;98670.22;;;23.99;43.64
32642;BME280;19323;56.072;9.698;2023-01-19T01:57:33;98665.69;;;24.00;43.50
32642;BME280;19323;56.072;9.698;2023-01-19T02:00:00;98666.50;;;24.00;43.60
32642;BME280;19323;56.072;9.698;2023-01-19T02:02:27;98669.38;;;23.99;43.32
32642;BME280;19323;56.072;9.698;2023-01-19T02:05:21;98663.66;;;24.09;43.52
32642;BME280;19323;56.072;9.698;2023-01-19T02:07:53;98664.69;;;24.08;43.36
32642;BME280;19323;56.072;9.698;2023-01-19T02:10:40;98649.16;;;23.90;43.55
32642;BME280;19323;56.072;9.698;2023-01-19T02:13:27;98660.78;;;24.03;43.47
32642;BME280;19323;56.072;9.698;2023-01-19T02:15:56;98659.09;;;24.02;43.57
32642;BME280;19323;56.072;9.698;2023-01-19T02:18:25;98659.91;;;24.03;43.57
32642;BME280;19323;56.072;9.698;2023-01-19T02:21:11;98649.88;;;24.12;43.22
32642;BME280;19323;56.072;9.698;2023-01-19T02:23:42;98649.66;;;24.06;43.41
32642;BME280;19323;56.072;9.698;2023-01-19T02:26:11;98649.44;;;24.01;43.45
32642;BME280;19323;56.072;9.698;2023-01-19T02:28:41;98645.53;;;24.04;43.45
32642;BME280;19323;56.072;9.698;2023-01-19T02:31:07;98636.69;;;23.97;43.63
32642;BME280;19323;56.072;9.698;2023-01-19T02:33:33;98633.16;;;23.96;43.36
32642;BME280;19323;56.072;9.698;2023-01-19T02:35:58;98631.31;;;23.97;43.32
32642;BME280;19323;56.072;9.698;2023-01-19T02:38:26;98625.38;;;24.01;43.07
32642;BME280;19323;56.072;9.698;2023-01-19T02:40:54;98628.69;;;24.03;43.29
32642;BME280;19323;56.072;9.698;2023-01-19T02:43:22;98634.41;;;24.00;43.43
32642;BME280;19323;56.072;9.698;2023-01-19T02:45:48;98617.53;;;23.93;43.42
32642;BME280;19323;56.072;9.698;2023-01-19T02:48:15;98639.38;;;24.03;43.64
32642;BME280;19323;56.072;9.698;2023-01-19T02:50:44;98632.34;;;24.02;43.30
32642;BME280;19323;56.072;9.698;2023-01-19T02:56:22;98632.81;;;24.13;43.26
32642;BME280;19323;56.072;9.698;2023-01-19T02:59:00;98626.84;;;24.11;43.19
32642;BME280;19323;56.072;9.698;2023-01-19T03:01:33;98620.03;;;24.01;43.26
32642;BME280;19323;56.072;9.698;2023-01-19T03:04:16;98618.00;;;24.10;43.08
32642;BME280;19323;56.072;9.698;2023-01-19T03:06:54;98619.88;;;24.10;43.19
32642;BME280;19323;56.072;9.698;2023-01-19T03:09:46;98618.19;;;24.09;43.23
32642;BME280;19323;56.072;9.698;2023-01-19T03:15:03;98615.50;;;24.02;43.29
32642;BME280;19323;56.072;9.698;2023-01-19T03:17:34;98608.28;;;23.96;43.18
32642;BME280;19323;56.072;9.698;2023-01-19T03:20:02;98614.06;;;23.99;43.38
32642;BME280;19323;56.072;9.698;2023-01-19T03:22:31;98614.25;;;23.98;43.19
32642;BME280;19323;56.072;9.698;2023-01-19T03:24:58;98591.78;;;23.85;43.33
32642;BME280;19323;56.072;9.698;2023-01-19T03:27:28;98616.94;;;24.04;43.35
32642;BME280;19323;56.072;9.698;2023-01-19T03:29:58;98616.94;;;24.04;43.30
32642;BME280;19323;56.072;9.698;2023-01-19T03:32:30;98601.94;;;24.03;43.46
32642;BME280;19323;56.072;9.698;2023-01-19T03:35:02;98607.69;;;24.07;43.13
32642;BME280;19323;56.072;9.698;2023-01-19T03:37:30;98602.31;;;24.00;43.33
32642;BME280;19323;56.072;9.698;2023-01-19T03:39:57;98603.97;;;23.95;43.24
32642;BME280;19323;56.072;9.698;2023-01-19T03:42:23;98605.81;;;23.94;43.26
32642;BME280;19323;56.072;9.698;2023-01-19T03:44:50;98597.56;;;23.96;43.17
32642;BME280;19323;56.072;9.698;2023-01-19T03:47:20;98610.94;;;23.96;43.07
32642;BME280;19323;56.072;9.698;2023-01-19T03:49:46;98599.03;;;23.98;43.18
32642;BME280;19323;56.072;9.698;2023-01-19T03:52:14;98590.38;;;23.96;43.37
32642;BME280;19323;56.072;9.698;2023-01-19T03:54:39;98599.03;;;23.98;43.15
32642;BME280;19323;56.072;9.698;2023-01-19T03:57:05;98595.53;;;23.98;43.25
32642;BME280;19323;56.072;9.698;2023-01-19T03:59:30;98579.47;;;23.91;43.31
32642;BME280;19323;56.072;9.698;2023-01-19T04:01:55;98594.91;;;23.96;43.04
32642;BME280;19323;56.072;9.698;2023-01-19T04:04:21;98596.13;;;23.93;43.25
32642;BME280;19323;56.072;9.698;2023-01-19T04:06:46;98590.78;;;23.93;43.15
32642;BME280;19323;56.072;9.698;2023-01-19T04:09:11;98588.94;;;23.94;43.43
32642;BME280;19323;56.072;9.698;2023-01-19T04:11:37;98589.38;;;23.97;43.28
32642;BME280;19323;56.072;9.698;2023-01-19T04:14:02;98593.88;;;23.97;43.51
32642;BME280;19323;56.072;9.698;2023-01-19T04:16:28;98592.22;;;23.96;43.26
32642;BME280;19323;56.072;9.698;2023-01-19T04:18:53;98584.44;;;23.94;43.26
32642;BME280;19323;56.072;9.698;2023-01-19T04:21:18;98586.06;;;23.95;43.34
32642;BME280;19323;56.072;9.698;2023-01-19T04:23:46;98578.66;;;23.91;43.27
32642;BME280;19323;56.072;9.698;2023-01-19T04:26:13;98580.72;;;23.95;43.44
32642;BME280;19323;56.072;9.698;2023-01-19T04:28:39;98578.22;;;23.94;43.46
32642;BME280;19323;56.072;9.698;2023-01-19T04:31:06;98568.56;;;23.93;43.60
32642;BME280;19323;56.072;9.698;2023-01-19T04:33:32;98575.38;;;23.95;43.83
32642;BME280;19323;56.072;9.698;2023-01-19T04:35:57;98566.50;;;23.88;43.68
32642;BME280;19323;56.072;9.698;2023-01-19T04:38:24;98574.53;;;23.95;43.91
32642;BME280;19323;56.072;9.698;2023-01-19T04:40:50;98563.84;;;23.95;44.06
32642;BME280;19323;56.072;9.698;2023-01-19T04:43:17;98559.94;;;23.91;43.65
32642;BME280;19323;56.072;9.698;2023-01-19T04:45:42;98566.91;;;23.92;43.72
32642;BME280;19323;56.072;9.698;2023-01-19T04:48:11;98555.81;;;23.88;43.90
32642;BME280;19323;56.072;9.698;2023-01-19T04:50:37;98556.00;;;23.87;43.47
32642;BME280;19323;56.072;9.698;2023-01-19T04:53:03;98558.25;;;23.90;43.74
32642;BME280;19323;56.072;9.698;2023-01-19T04:55:28;98557.44;;;23.89;43.42
32642;BME280;19323;56.072;9.698;2023-01-19T04:57:53;98560.75;;;23.91;43.50
32642;BME280;19323;56.072;9.698;2023-01-19T05:00:19;98554.78;;;23.89;43.79
32642;BME280;19323;56.072;9.698;2023-01-19T05:02:45;98554.38;;;23.92;43.80
32642;BME280;19323;56.072;9.698;2023-01-19T05:05:10;98565.09;;;23.92;43.77
32642;BME280;19323;56.072;9.698;2023-01-19T05:07:36;98548.59;;;23.89;43.82
32642;BME280;19323;56.072;9.698;2023-01-19T05:10:02;98558.06;;;23.91;43.84
32642;BME280;19323;56.072;9.698;2023-01-19T05:12:27;98551.09;;;23.90;43.73
32642;BME280;19323;56.072;9.698;2023-01-19T05:14:53;98548.41;;;23.90;43.80
32642;BME280;19323;56.072;9.698;2023-01-19T05:17:18;98546.94;;;23.88;43.97
32642;BME280;19323;56.072;9.698;2023-01-19T05:19:43;98553.75;;;23.90;44.01
32642;BME280;19323;56.072;9.698;2023-01-19T05:22:08;98519.31;;;23.74;43.69
32642;BME280;19323;56.072;9.698;2023-01-19T05:24:34;98543.44;;;23.87;44.14
32642;BME280;19323;56.072;9.698;2023-01-19T05:26:59;98534.81;;;23.85;44.21
32642;BME280;19323;56.072;9.698;2023-01-19T05:29:24;98539.34;;;23.91;43.98
32642;BME280;19323;56.072;9.698;2023-01-19T05:31:49;98543.44;;;23.87;44.57
32642;BME280;19323;56.072;9.698;2023-01-19T05:34:16;98544.69;;;23.91;44.23
32642;BME280;19323;56.072;9.698;2023-01-19T05:36:41;98546.34;;;23.85;44.05
32642;BME280;19323;56.072;9.698;2023-01-19T05:39:07;98545.13;;;23.88;44.81
32642;BME280;19323;56.072;9.698;2023-01-19T05:41:32;98553.31;;;23.87;44.85
32642;BME280;19323;56.072;9.698;2023-01-19T05:43:57;98496.66;;;23.56;44.97
32642;BME280;19323;56.072;9.698;2023-01-19T05:46:23;98552.50;;;23.86;44.53
32642;BME280;19323;56.072;9.698;2023-01-19T05:48:48;98526.53;;;23.73;45.02
32642;BME280;19323;56.072;9.698;2023-01-19T05:51:14;98548.81;;;23.87;44.92
32642;BME280;19323;56.072;9.698;2023-01-19T05:53:39;98538.91;;;23.81;44.88
32642;BME280;19323;56.072;9.698;2023-01-19T05:56:06;98550.25;;;23.90;45.13
32642;BME280;19323;56.072;9.698;2023-01-19T05:58:33;98531.28;;;23.78;45.02
32642;BME280;19323;56.072;9.698;2023-01-19T06:01:03;98555.00;;;23.94;44.87
32642;BME280;19323;56.072;9.698;2023-01-19T06:03:33;98548.81;;;23.87;45.01
32642;BME280;19323;56.072;9.698;2023-01-19T06:05:59;98546.13;;;23.87;45.09
32642;BME280;19323;56.072;9.698;2023-01-19T06:08:24;98549.84;;;23.86;44.88
32642;BME280;19323;56.072;9.698;2023-01-19T06:10:50;98547.97;;;23.87;45.16
32642;BME280;19323;56.072;9.698;2023-01-19T06:13:15;98518.06;;;23.70;44.70
32642;BME280;19323;56.072;9.698;2023-01-19T06:15:41;98549.22;;;23.84;44.62
32642;BME280;19323;56.072;9.698;2023-01-19T06:18:08;98548.16;;;23.85;44.84
32642;BME280;19323;56.072;9.698;2023-01-19T06:20:34;98545.28;;;23.80;44.97
32642;BME280;19323;56.072;9.698;2023-01-19T06:22:59;98554.56;;;23.84;44.93
32642;BME280;19323;56.072;9.698;2023-01-19T06:25:24;98540.56;;;23.82;44.78
32642;BME280;19323;56.072;9.698;2023-01-19T06:27:50;98558.25;;;23.83;44.82
32642;BME280;19323;56.072;9.698;2023-01-19T06:30:16;98558.25;;;23.83;44.74
32642;BME280;19323;56.072;9.698;2023-01-19T06:32:41;98555.56;;;23.83;44.68
32642;BME280;19323;56.072;9.698;2023-01-19T06:35:07;98548.78;;;23.80;44.63
32642;BME280;19323;56.072;9.698;2023-01-19T06:37:32;98553.94;;;23.82;44.95
32642;BME280;19323;56.072;9.698;2023-01-19T06:39:58;98558.47;;;23.81;44.82
32642;BME280;19323;56.072;9.698;2023-01-19T06:42:23;98558.25;;;23.83;44.87
32642;BME280;19323;56.072;9.698;2023-01-19T06:44:48;98570.34;;;23.79;45.06
32642;BME280;19323;56.072;9.698;2023-01-19T06:47:14;98575.94;;;23.84;44.79
32642;BME280;19323;56.072;9.698;2023-01-19T06:49:40;98576.31;;;23.81;44.80
32642;BME280;19323;56.072;9.698;2023-01-19T06:52:05;98574.69;;;23.80;44.87
32642;BME280;19323;56.072;9.698;2023-01-19T06:54:30;98574.28;;;23.83;45.04
32642;BME280;19323;56.072;9.698;2023-01-19T06:56:56;98571.81;;;23.81;45.12
32642;BME280;19323;56.072;9.698;2023-01-19T06:59:21;98575.31;;;23.82;44.71
32642;BME280;19323;56.072;9.698;2023-01-19T07:01:46;98577.19;;;23.81;44.35
32642;BME280;19323;56.072;9.698;2023-01-19T07:04:11;98569.75;;;23.77;44.47
32642;BME280;19323;56.072;9.698;2023-01-19T07:06:38;98582.94;;;23.85;44.53
32642;BME280;19323;56.072;9.698;2023-01-19T07:09:03;98571.19;;;23.79;44.39
32642;BME280;19323;56.072;9.698;2023-01-19T07:11:32;98578.00;;;23.82;44.39
32642;BME280;19323;56.072;9.698;2023-01-19T07:13:57;98582.94;;;23.85;44.52
32642;BME280;19323;56.072;9.698;2023-01-19T07:16:22;98583.78;;;23.85;44.34
32642;BME280;19323;56.072;9.698;2023-01-19T07:18:48;98583.78;;;23.85;44.25
32642;BME280;19323;56.072;9.698;2023-01-19T07:21:14;98588.09;;;23.87;44.27
32642;BME280;19323;56.072;9.698;2023-01-19T07:23:39;98584.34;;;23.81;44.41
32642;BME280;19323;56.072;9.698;2023-01-19T07:26:04;98584.16;;;23.82;44.21
32642;BME280;19323;56.072;9.698;2023-01-19T07:28:30;98583.56;;;23.87;44.22
32642;BME280;19323;56.072;9.698;2023-01-19T07:30:56;98576.31;;;23.81;44.16
32642;BME280;19323;56.072;9.698;2023-01-19T07:33:22;98589.13;;;23.85;44.20
32642;BME280;19323;56.072;9.698;2023-01-19T07:35:49;98589.94;;;23.86;44.13
32642;BME280;19323;56.072;9.698;2023-01-19T07:38:16;98582.75;;;23.87;44.20
32642;BME280;19323;56.072;9.698;2023-01-19T07:40:42;98587.03;;;23.88;44.11
32642;BME280;19323;56.072;9.698;2023-01-19T07:43:07;98585.59;;;23.85;44.13
32642;BME280;19323;56.072;9.698;2023-01-19T07:45:32;98591.78;;;23.85;43.86
32642;BME280;19323;56.072;9.698;2023-01-19T07:47:59;98592.38;;;23.88;43.91
32642;BME280;19323;56.072;9.698;2023-01-19T07:50:24;98578.38;;;23.79;43.90
32642;BME280;19323;56.072;9.698;2023-01-19T07:52:51;98594.25;;;23.87;44.15
32642;BME280;19323;56.072;9.698;2023-01-19T07:55:18;98594.88;;;23.89;44.34
32642;BME280;19323;56.072;9.698;2023-01-19T07:57:44;98589.31;;;23.84;44.33
32642;BME280;19323;56.072;9.698;2023-01-19T08:00:11;98597.53;;;23.89;44.37
32642;BME280;19323;56.072;9.698;2023-01-19T08:02:38;98596.53;;;23.90;44.68
32642;BME280;19323;56.072;9.698;2023-01-19T08:05:05;98599.41;;;23.89;44.64
32642;BME280;19323;56.072;9.698;2023-01-19T08:07:32;98604.34;;;23.92;44.72
32642;BME280;19323;56.072;9.698;2023-01-19T08:09:57;98594.25;;;23.87;44.86
32642;BME280;19323;56.072;9.698;2023-01-19T08:12:22;98594.06;;;23.89;44.65
32642;BME280;19323;56.072;9.698;2023-01-19T08:14:48;98599.59;;;23.87;44.65
32642;BME280;19323;56.072;9.698;2023-01-19T08:17:13;98600.22;;;23.89;44.66
32642;BME280;19323;56.072;9.698;2023-01-19T08:19:38;98597.34;;;23.91;44.75
32642;BME280;19323;56.072;9.698;2023-01-19T08:22:04;98611.53;;;23.91;44.79
32642;BME280;19323;56.072;9.698;2023-01-19T08:24:30;98602.72;;;23.91;44.88
32642;BME280;19323;56.072;9.698;2023-01-19T08:27:00;98610.75;;;23.97;44.63
32642;BME280;19323;56.072;9.698;2023-01-19T08:29:26;98602.72;;;23.91;44.66
32642;BME280;19323;56.072;9.698;2023-01-19T08:31:51;98602.72;;;23.91;44.48
32642;BME280;19323;56.072;9.698;2023-01-19T08:34:19;98601.03;;;23.90;44.54
32642;BME280;19323;56.072;9.698;2023-01-19T08:36:44;98580.16;;;23.72;44.53
32642;BME280;19323;56.072;9.698;2023-01-19T08:39:10;98610.09;;;23.89;44.66
32642;BME280;19323;56.072;9.698;2023-01-19T08:41:36;98612.59;;;23.90;44.72
32642;BME280;19323;56.072;9.698;2023-01-19T08:44:01;98604.75;;;23.89;44.79
32642;BME280;19323;56.072;9.698;2023-01-19T08:46:27;98616.69;;;23.93;44.67
32642;BME280;19323;56.072;9.698;2023-01-19T08:48:52;98608.88;;;23.91;44.84
32642;BME280;19323;56.072;9.698;2023-01-19T08:51:17;98610.91;;;23.89;44.50
32642;BME280;19323;56.072;9.698;2023-01-19T08:53:43;98611.16;;;23.94;44.65
32642;BME280;19323;56.072;9.698;2023-01-19T08:56:09;98616.50;;;23.94;44.71
32642;BME280;19323;56.072;9.698;2023-01-19T08:58:39;98614.22;;;23.91;44.76
32642;BME280;19323;56.072;9.698;2023-01-19T09:01:06;98619.19;;;23.94;44.63
32642;BME280;19323;56.072;9.698;2023-01-19T09:03:32;98624.53;;;23.94;44.37
32642;BME280;19323;56.072;9.698;2023-01-19T09:05:58;98613.59;;;23.89;44.48
32642;BME280;19323;56.072;9.698;2023-01-19T09:08:23;98621.84;;;23.94;44.70
32642;BME280;19323;56.072;9.698;2023-01-19T09:10:49;98624.13;;;23.97;44.55
32642;BME280;19323;56.072;9.698;2023-01-19T09:13:16;98632.34;;;23.96;44.61
32642;BME280;19323;56.072;9.698;2023-01-19T09:15:42;98629.88;;;23.94;44.47
32642;BME280;19323;56.072;9.698;2023-01-19T09:18:13;98624.91;;;23.91;44.55
32642;BME280;19323;56.072;9.698;2023-01-19T09:20:40;98638.50;;;23.96;44.63
32642;BME280;19323;56.072;9.698;2023-01-19T09:23:08;98648.38;;;23.96;44.56
32642;BME280;19323;56.072;9.698;2023-01-19T09:25:35;98635.59;;;23.91;44.37
32642;BME280;19323;56.072;9.698;2023-01-19T09:28:01;98651.06;;;23.96;44.08
32642;BME280;19323;56.072;9.698;2023-01-19T09:30:26;98651.06;;;23.96;43.97
32642;BME280;19323;56.072;9.698;2023-01-19T09:32:51;98654.94;;;23.93;43.99
32642;BME280;19323;56.072;9.698;2023-01-19T09:35:17;98654.13;;;23.93;43.98
32642;BME280;19323;56.072;9.698;2023-01-19T09:37:45;98665.50;;;24.01;43.72
32642;BME280;19323;56.072;9.698;2023-01-19T09:40:12;98663.59;;;23.95;43.69
32642;BME280;19323;56.072;9.698;2023-01-19T09:42:43;98667.13;;;24.02;43.76
32642;BME280;19323;56.072;9.698;2023-01-19T09:45:30;98658.72;;;24.05;43.73
32642;BME280;19323;56.072;9.698;2023-01-19T09:48:00;98671.44;;;23.97;43.87
32642;BME280;19323;56.072;9.698;2023-01-19T09:50:34;98666.13;;;24.03;43.73
32642;BME280;19323;56.072;9.698;2023-01-19T09:53:08;98676.19;;;24.01;43.70
32642;BME280;19323;56.072;9.698;2023-01-19T09:55:39;98673.47;;;23.95;43.94
32642;BME280;19323;56.072;9.698;2023-01-19T09:58:11;98678.84;;;24.01;43.80
32642;BME280;19323;56.072;9.698;2023-01-19T10:00:38;98678.00;;;23.94;43.89
32642;BME280;19323;56.072;9.698;2023-01-19T10:03:13;98679.69;;;24.02;43.67
32642;BME280;19323;56.072;9.698;2023-01-19T10:05:44;98684.84;;;24.03;43.71
32642;BME280;19323;56.072;9.698;2023-01-19T10:08:32;98691.44;;;24.08;43.62
32642;BME280;19323;56.072;9.698;2023-01-19T10:11:04;98696.31;;;23.97;43.86
32642;BME280;19323;56.072;9.698;2023-01-19T10:13:48;98694.13;;;24.08;43.83
32642;BME280;19323;56.072;9.698;2023-01-19T10:21:42;98669.06;;;23.80;43.81
32642;BME280;19323;56.072;9.698;2023-01-19T10:24:40;98711.81;;;24.09;43.50
32642;BME280;19323;56.072;9.698;2023-01-19T10:27:19;98715.50;;;24.08;43.59
32642;BME280;19323;56.072;9.698;2023-01-19T10:29:48;98709.47;;;23.92;43.69
32642;BME280;19323;56.072;9.698;2023-01-19T10:32:15;98719.97;;;24.00;43.76
32642;BME280;19323;56.072;9.698;2023-01-19T10:34:42;98714.22;;;23.97;43.61
32642;BME280;19323;56.072;9.698;2023-01-19T10:39:44;98722.47;;;24.02;43.65
32642;BME280;19323;56.072;9.698;2023-01-19T10:42:12;98721.19;;;23.98;43.56
32642;BME280;19323;56.072;9.698;2023-01-19T10:44:40;98714.59;;;23.94;43.55
32642;BME280;19323;56.072;9.698;2023-01-19T10:47:14;98731.94;;;24.04;43.61
32642;BME280;19323;56.072;9.698;2023-01-19T10:49:41;98734.38;;;23.99;43.63
32642;BME280;19323;56.072;9.698;2023-01-19T10:52:18;98731.75;;;24.06;43.55
32642;BME280;19323;56.072;9.698;2023-01-19T10:54:44;98733.94;;;23.96;43.37
32642;BME280;19323;56.072;9.698;2023-01-19T10:57:22;98736.28;;;24.05;43.04
32642;BME280;19323;56.072;9.698;2023-01-19T10:59:49;98739.72;;;23.99;43.54
32642;BME280;19323;56.072;9.698;2023-01-19T11:04:43;98745.47;;;23.96;43.24
32642;BME280;19323;56.072;9.698;2023-01-19T11:12:39;98764.47;;;24.08;43.42
32642;BME280;19323;56.072;9.698;2023-01-19T11:15:13;98768.59;;;24.11;43.30
32642;BME280;19323;56.072;9.698;2023-01-19T11:17:42;98765.06;;;24.03;43.43
32642;BME280;19323;56.072;9.698;2023-01-19T11:20:18;98766.97;;;24.10;43.33
32642;BME280;19323;56.072;9.698;2023-01-19T11:22:44;98767.09;;;24.01;43.34
32642;BME280;19323;56.072;9.698;2023-01-19T11:25:23;98752.94;;;24.08;43.21
32642;BME280;19323;56.072;9.698;2023-01-19T11:27:52;98751.88;;;24.02;43.13
32642;BME280;19323;56.072;9.698;2023-01-19T11:30:23;98756.84;;;24.12;42.89
32642;BME280;19323;56.072;9.698;2023-01-19T11:32:49;98756.19;;;24.03;43.43
32642;BME280;19323;56.072;9.698;2023-01-19T11:35:33;98745.94;;;24.06;43.08
32642;BME280;19323;56.072;9.698;2023-01-19T11:38:15;98769.03;;;24.14;43.24
32642;BME280;19323;56.072;9.698;2023-01-19T11:40:49;98782.59;;;24.13;43.21
32642;BME280;19323;56.072;9.698;2023-01-19T11:43:15;98777.16;;;23.99;43.46
32642;BME280;19323;56.072;9.698;2023-01-19T11:45:40;98775.50;;;23.98;43.19
32642;BME280;19323;56.072;9.698;2023-01-19T11:48:06;98788.91;;;24.05;43.44
32642;BME280;19323;56.072;9.698;2023-01-19T11:50:40;98795.16;;;24.12;43.08
32642;BME280;19323;56.072;9.698;2023-01-19T11:53:15;98800.28;;;24.14;43.12
32642;BME280;19323;56.072;9.698;2023-01-19T11:56:03;98805.88;;;24.19;43.09
32642;BME280;19323;56.072;9.698;2023-01-19T11:58:31;98806.63;;;24.06;43.22
32642;BME280;19323;56.072;9.698;2023-01-19T12:04:03;98820.09;;;24.19;43.34
32642;BME280;19323;56.072;9.698;2023-01-19T12:06:34;98808.72;;;24.11;43.19
32642;BME280;19323;56.072;9.698;2023-01-19T12:09:05;98818.81;;;24.15;42.93
32642;BME280;19323;56.072;9.698;2023-01-19T12:11:36;98820.44;;;24.10;43.17
32642;BME280;19323;56.072;9.698;2023-01-19T12:14:03;98829.47;;;24.09;43.29
32642;BME280;19323;56.072;9.698;2023-01-19T12:16:31;98841.03;;;24.16;43.28
32642;BME280;19323;56.072;9.698;2023-01-19T12:19:02;98841.44;;;24.13;43.11
32642;BME280;19323;56.072;9.698;2023-01-19T12:21:29;98842.03;;;24.08;43.28
32642;BME280;19323;56.072;9.698;2023-01-19T12:26:37;98856.72;;;24.19;43.15
32642;BME280;19323;56.072;9.698;2023-01-19T12:29:12;98848.06;;;24.17;43.13
32642;BME280;19323;56.072;9.698;2023-01-19T12:31:40;98859.34;;;24.12;43.17
32642;BME280;19323;56.072;9.698;2023-01-19T12:36:47;98868.59;;;24.10;43.30
32642;BME280;19323;56.072;9.698;2023-01-19T12:39:17;98874.00;;;24.16;42.88
32642;BME280;19323;56.072;9.698;2023-01-19T12:41:43;98868.59;;;24.10;43.23
32642;BME280;19323;56.072;9.698;2023-01-19T12:46:47;98868.19;;;24.13;42.63
32642;BME280;19323;56.072;9.698;2023-01-19T12:49:23;98874.63;;;24.18;42.92
32642;BME280;19323;56.072;9.698;2023-01-19T12:51:52;98882.19;;;24.15;42.97
32642;BME280;19323;56.072;9.698;2023-01-19T12:54:29;98880.56;;;24.20;42.69
32642;BME280;19323;56.072;9.698;2023-01-19T12:57:07;98892.53;;;24.24;42.78
32642;BME280;19323;56.072;9.698;2023-01-19T12:59:35;98881.56;;;24.13;42.99
32642;BME280;19323;56.072;9.698;2023-01-19T13:08:12;98919.75;;;24.28;42.95
32642;BME280;19323;56.072;9.698;2023-01-19T13:13:29;98934.28;;;24.19;43.04
32642;BME280;19323;56.072;9.698;2023-01-19T13:15:58;98933.66;;;24.17;43.20
32642;BME280;19323;56.072;9.698;2023-01-19T13:18:30;98942.50;;;24.17;43.05
32642;BME280;19323;56.072;9.698;2023-01-19T13:21:06;98947.53;;;24.27;43.07
32642;BME280;19323;56.072;9.698;2023-01-19T13:26:33;98966.25;;;24.27;42.98
32642;BME280;19323;56.072;9.698;2023-01-19T13:31:49;98952.50;;;24.09;43.16
32642;BME280;19323;56.072;9.698;2023-01-19T13:34:25;98959.00;;;24.21;42.90
32642;BME280;19323;56.072;9.698;2023-01-19T13:36:53;98956.47;;;24.13;43.11
32642;BME280;19323;56.072;9.698;2023-01-19T13:39:25;98965.81;;;24.23;42.97
32642;BME280;19323;56.072;9.698;2023-01-19T13:41:53;98966.97;;;24.14;43.00
32642;BME280;19323;56.072;9.698;2023-01-19T13:44:25;98976.50;;;24.23;42.99
32642;BME280;19323;56.072;9.698;2023-01-19T13:46:52;98983.66;;;24.16;43.03
32642;BME280;19323;56.072;9.698;2023-01-19T13:49:29;98981.22;;;24.21;42.58
32642;BME280;19323;56.072;9.698;2023-01-19T13:52:15;98994.25;;;24.31;42.66
32642;BME280;19323;56.072;9.698;2023-01-19T13:54:48;98977.09;;;24.19;42.43
32642;BME280;19323;56.072;9.698;2023-01-19T13:57:30;99001.03;;;24.27;42.56